sensor_id;sensor_type;location;lat;lon;timestamp;P1;durP1;ratioP1;P2;durP2;ratioP2
58756;SDS011;44527;47.460;19.016;2023-07-13T00:01:10;7.60;;;3.20;;
58756;SDS011;44527;47.460;19.016;2023-07-13T00:04:13;7.43;;;2.62;;
58756;SDS011;44527;47.460;19.016;2023-07-13T00:07:15;6.95;;;2.78;;
58756;SDS011;44527;47.460;19.016;2023-07-13T00:10:22;12.75;;;2.78;;
58756;SDS011;44527;47.460;19.016;2023-07-13T00:13:24;5.62;;;2.53;;
58756;SDS011;44527;47.460;19.016;2023-07-13T00:16:27;2.97;;;1.62;;
58756;SDS011;44527;47.460;19.016;2023-07-13T00:19:29;4.55;;;1.67;;
58756;SDS011;44527;47.460;19.016;2023-07-13T00:22:32;9.65;;;2.10;;
58756;SDS011;44527;47.460;19.016;2023-07-13T00:25:34;6.00;;;1.62;;
58756;SDS011;44527;47.460;19.016;2023-07-13T00:28:37;9.55;;;2.28;;
58756;SDS011;44527;47.460;19.016;2023-07-13T00:31:41;7.55;;;1.92;;
58756;SDS011;44527;47.460;19.016;2023-07-13T00:34:45;6.97;;;2.42;;
58756;SDS011;44527;47.460;19.016;2023-07-13T00:37:48;5.10;;;2.30;;
58756;SDS011;44527;47.460;19.016;2023-07-13T00:40:52;8.38;;;2.30;;
58756;SDS011;44527;47.460;19.016;2023-07-13T00:43:54;6.43;;;2.00;;
58756;SDS011;44527;47.460;19.016;2023-07-13T00:46:57;6.57;;;1.90;;
58756;SDS011;44527;47.460;19.016;2023-07-13T00:50:00;3.90;;;1.55;;
58756;SDS011;44527;47.460;19.016;2023-07-13T00:53:04;7.30;;;2.40;;
58756;SDS011;44527;47.460;19.016;2023-07-13T00:56:07;9.60;;;2.50;;
58756;SDS011;44527;47.460;19.016;2023-07-13T00:59:11;5.20;;;2.10;;
58756;SDS011;44527;47.460;19.016;2023-07-13T01:02:16;6.18;;;2.08;;
58756;SDS011;44527;47.460;19.016;2023-07-13T01:05:20;6.95;;;2.40;;
58756;SDS011;44527;47.460;19.016;2023-07-13T01:08:24;7.15;;;2.22;;
58756;SDS011;44527;47.460;19.016;2023-07-13T01:11:27;4.95;;;2.08;;
58756;SDS011;44527;47.460;19.016;2023-07-13T01:14:31;7.10;;;2.35;;
58756;SDS011;44527;47.460;19.016;2023-07-13T01:17:33;5.45;;;2.15;;
58756;SDS011;44527;47.460;19.016;2023-07-13T01:20:37;8.25;;;2.35;;
58756;SDS011;44527;47.460;19.016;2023-07-13T01:23:40;4.50;;;1.87;;
58756;SDS011;44527;47.460;19.016;2023-07-13T01:26:43;4.25;;;1.75;;
58756;SDS011;44527;47.460;19.016;2023-07-13T01:29:46;6.00;;;2.03;;
58756;SDS011;44527;47.460;19.016;2023-07-13T01:32:49;5.28;;;2.37;;
58756;SDS011;44527;47.460;19.016;2023-07-13T01:35:53;7.65;;;2.00;;
58756;SDS011;44527;47.460;19.016;2023-07-13T01:38:56;8.38;;;2.37;;
58756;SDS011;44527;47.460;19.016;2023-07-13T01:41:59;4.90;;;2.20;;
58756;SDS011;44527;47.460;19.016;2023-07-13T01:45:01;5.30;;;2.30;;
58756;SDS011;44527;47.460;19.016;2023-07-13T01:48:05;8.77;;;2.17;;
58756;SDS011;44527;47.460;19.016;2023-07-13T01:51:08;6.20;;;2.22;;
58756;SDS011;44527;47.460;19.016;2023-07-13T01:54:11;6.78;;;2.28;;
58756;SDS011;44527;47.460;19.016;2023-07-13T01:57:14;6.50;;;2.28;;
58756;SDS011;44527;47.460;19.016;2023-07-13T02:00:16;6.97;;;1.85;;
58756;SDS011;44527;47.460;19.016;2023-07-13T02:03:21;5.80;;;1.98;;
58756;SDS011;44527;47.460;19.016;2023-07-13T02:06:23;7.55;;;2.08;;
58756;SDS011;44527;47.460;19.016;2023-07-13T02:09:26;4.68;;;1.87;;
58756;SDS011;44527;47.460;19.016;2023-07-13T02:12:28;5.95;;;2.37;;
58756;SDS011;44527;47.460;19.016;2023-07-13T02:15:31;6.22;;;1.92;;
58756;SDS011;44527;47.460;19.016;2023-07-13T02:18:34;6.15;;;2.10;;
58756;SDS011;44527;47.460;19.016;2023-07-13T02:21:36;6.87;;;1.83;;
58756;SDS011;44527;47.460;19.016;2023-07-13T02:24:38;6.87;;;2.30;;
58756;SDS011;44527;47.460;19.016;2023-07-13T02:27:41;12.32;;;2.55;;
58756;SDS011;44527;47.460;19.016;2023-07-13T02:30:43;5.50;;;1.98;;
58756;SDS011;44527;47.460;19.016;2023-07-13T02:33:46;7.22;;;2.00;;
58756;SDS011;44527;47.460;19.016;2023-07-13T02:36:48;7.53;;;2.22;;
58756;SDS011;44527;47.460;19.016;2023-07-13T02:39:52;5.40;;;2.53;;
58756;SDS011;44527;47.460;19.016;2023-07-13T02:42:54;7.53;;;2.22;;
58756;SDS011;44527;47.460;19.016;2023-07-13T02:45:58;8.63;;;2.30;;
58756;SDS011;44527;47.460;19.016;2023-07-13T02:49:06;7.45;;;2.15;;
58756;SDS011;44527;47.460;19.016;2023-07-13T02:52:09;9.23;;;2.30;;
58756;SDS011;44527;47.460;19.016;2023-07-13T02:55:12;8.40;;;2.08;;
58756;SDS011;44527;47.460;19.016;2023-07-13T02:58:15;15.63;;;3.37;;
58756;SDS011;44527;47.460;19.016;2023-07-13T03:01:19;7.28;;;2.28;;
58756;SDS011;44527;47.460;19.016;2023-07-13T03:04:24;5.00;;;2.22;;
58756;SDS011;44527;47.460;19.016;2023-07-13T03:07:27;6.90;;;2.22;;
58756;SDS011;44527;47.460;19.016;2023-07-13T03:10:29;5.68;;;2.30;;
58756;SDS011;44527;47.460;19.016;2023-07-13T03:13:32;6.20;;;2.17;;
58756;SDS011;44527;47.460;19.016;2023-07-13T03:16:35;5.53;;;1.98;;
58756;SDS011;44527;47.460;19.016;2023-07-13T03:19:38;18.50;;;3.08;;
58756;SDS011;44527;47.460;19.016;2023-07-13T03:22:41;23.30;;;3.42;;
58756;SDS011;44527;47.460;19.016;2023-07-13T03:25:44;5.75;;;2.00;;
58756;SDS011;44527;47.460;19.016;2023-07-13T03:28:47;8.35;;;2.45;;
58756;SDS011;44527;47.460;19.016;2023-07-13T03:31:50;7.60;;;2.72;;
58756;SDS011;44527;47.460;19.016;2023-07-13T03:34:54;3.85;;;1.92;;
58756;SDS011;44527;47.460;19.016;2023-07-13T03:37:56;10.25;;;2.35;;
58756;SDS011;44527;47.460;19.016;2023-07-13T03:41:02;5.25;;;2.00;;
58756;SDS011;44527;47.460;19.016;2023-07-13T03:44:05;4.43;;;1.95;;
58756;SDS011;44527;47.460;19.016;2023-07-13T03:47:08;5.03;;;2.05;;
58756;SDS011;44527;47.460;19.016;2023-07-13T03:50:11;5.10;;;2.28;;
58756;SDS011;44527;47.460;19.016;2023-07-13T03:53:13;9.05;;;2.50;;
58756;SDS011;44527;47.460;19.016;2023-07-13T03:56:16;6.65;;;2.42;;
58756;SDS011;44527;47.460;19.016;2023-07-13T03:59:20;7.53;;;2.40;;
58756;SDS011;44527;47.460;19.016;2023-07-13T04:02:23;10.20;;;2.62;;
58756;SDS011;44527;47.460;19.016;2023-07-13T04:05:25;5.72;;;2.40;;
58756;SDS011;44527;47.460;19.016;2023-07-13T04:08:28;6.85;;;2.15;;
58756;SDS011;44527;47.460;19.016;2023-07-13T04:11:33;15.90;;;2.08;;
58756;SDS011;44527;47.460;19.016;2023-07-13T04:14:38;10.10;;;2.78;;
58756;SDS011;44527;47.460;19.016;2023-07-13T04:17:41;12.45;;;2.25;;
58756;SDS011;44527;47.460;19.016;2023-07-13T04:20:43;13.00;;;2.22;;
58756;SDS011;44527;47.460;19.016;2023-07-13T04:23:46;5.40;;;2.12;;
58756;SDS011;44527;47.460;19.016;2023-07-13T04:26:48;4.07;;;2.08;;
58756;SDS011;44527;47.460;19.016;2023-07-13T04:29:52;9.80;;;2.25;;
58756;SDS011;44527;47.460;19.016;2023-07-13T04:32:54;11.75;;;2.75;;
58756;SDS011;44527;47.460;19.016;2023-07-13T04:35:57;9.05;;;2.28;;
58756;SDS011;44527;47.460;19.016;2023-07-13T04:38:59;6.03;;;2.25;;
58756;SDS011;44527;47.460;19.016;2023-07-13T04:42:04;10.20;;;2.75;;
58756;SDS011;44527;47.460;19.016;2023-07-13T04:45:08;6.10;;;2.35;;
58756;SDS011;44527;47.460;19.016;2023-07-13T04:48:12;6.00;;;2.17;;
58756;SDS011;44527;47.460;19.016;2023-07-13T04:51:14;5.72;;;2.00;;
58756;SDS011;44527;47.460;19.016;2023-07-13T04:54:17;8.68;;;2.45;;
58756;SDS011;44527;47.460;19.016;2023-07-13T04:57:19;12.07;;;2.78;;
58756;SDS011;44527;47.460;19.016;2023-07-13T05:00:22;7.90;;;2.55;;
58756;SDS011;44527;47.460;19.016;2023-07-13T05:03:25;5.57;;;2.35;;
58756;SDS011;44527;47.460;19.016;2023-07-13T05:06:30;10.82;;;2.50;;
58756;SDS011;44527;47.460;19.016;2023-07-13T05:09:33;6.18;;;2.00;;
58756;SDS011;44527;47.460;19.016;2023-07-13T05:12:36;9.30;;;2.50;;
58756;SDS011;44527;47.460;19.016;2023-07-13T05:15:38;7.97;;;2.30;;
58756;SDS011;44527;47.460;19.016;2023-07-13T05:18:40;7.10;;;2.85;;
58756;SDS011;44527;47.460;19.016;2023-07-13T05:21:44;8.57;;;3.12;;
58756;SDS011;44527;47.460;19.016;2023-07-13T05:24:47;12.52;;;2.70;;
58756;SDS011;44527;47.460;19.016;2023-07-13T05:27:49;10.30;;;2.45;;
58756;SDS011;44527;47.460;19.016;2023-07-13T05:30:54;4.85;;;2.25;;
58756;SDS011;44527;47.460;19.016;2023-07-13T05:33:57;9.18;;;2.33;;
58756;SDS011;44527;47.460;19.016;2023-07-13T05:37:00;9.68;;;2.97;;
58756;SDS011;44527;47.460;19.016;2023-07-13T05:40:02;3.65;;;2.10;;
58756;SDS011;44527;47.460;19.016;2023-07-13T05:43:05;6.57;;;2.17;;
58756;SDS011;44527;47.460;19.016;2023-07-13T05:46:07;6.90;;;2.00;;
58756;SDS011;44527;47.460;19.016;2023-07-13T05:49:10;3.50;;;1.62;;
58756;SDS011;44527;47.460;19.016;2023-07-13T05:52:12;5.80;;;1.48;;
58756;SDS011;44527;47.460;19.016;2023-07-13T05:55:22;6.45;;;2.00;;
58756;SDS011;44527;47.460;19.016;2023-07-13T05:58:25;6.22;;;1.60;;
58756;SDS011;44527;47.460;19.016;2023-07-13T06:01:29;5.90;;;1.77;;
58756;SDS011;44527;47.460;19.016;2023-07-13T06:04:33;6.72;;;1.70;;
58756;SDS011;44527;47.460;19.016;2023-07-13T06:07:35;5.20;;;1.90;;
58756;SDS011;44527;47.460;19.016;2023-07-13T06:10:38;3.58;;;1.60;;
58756;SDS011;44527;47.460;19.016;2023-07-13T06:13:40;5.03;;;1.58;;
58756;SDS011;44527;47.460;19.016;2023-07-13T06:16:43;4.82;;;1.50;;
58756;SDS011;44527;47.460;19.016;2023-07-13T06:19:45;3.33;;;1.20;;
58756;SDS011;44527;47.460;19.016;2023-07-13T06:22:48;2.58;;;1.20;;
58756;SDS011;44527;47.460;19.016;2023-07-13T06:25:50;2.40;;;1.10;;
58756;SDS011;44527;47.460;19.016;2023-07-13T06:28:55;7.65;;;1.40;;
58756;SDS011;44527;47.460;19.016;2023-07-13T06:31:57;4.97;;;1.20;;
58756;SDS011;44527;47.460;19.016;2023-07-13T06:35:00;3.15;;;1.25;;
58756;SDS011;44527;47.460;19.016;2023-07-13T06:38:02;4.55;;;1.52;;
58756;SDS011;44527;47.460;19.016;2023-07-13T06:41:06;1.75;;;1.23;;
58756;SDS011;44527;47.460;19.016;2023-07-13T06:44:09;2.95;;;1.55;;
58756;SDS011;44527;47.460;19.016;2023-07-13T06:47:12;3.87;;;1.73;;
58756;SDS011;44527;47.460;19.016;2023-07-13T06:50:14;7.28;;;1.42;;
58756;SDS011;44527;47.460;19.016;2023-07-13T06:53:18;4.55;;;2.20;;
58756;SDS011;44527;47.460;19.016;2023-07-13T07:08:45;3.90;;;1.23;;
58756;SDS011;44527;47.460;19.016;2023-07-13T07:15:57;4.22;;;1.50;;
58756;SDS011;44527;47.460;19.016;2023-07-13T07:18:59;5.93;;;1.50;;
58756;SDS011;44527;47.460;19.016;2023-07-13T07:22:02;4.05;;;1.67;;
58756;SDS011;44527;47.460;19.016;2023-07-13T07:25:05;2.28;;;1.42;;
58756;SDS011;44527;47.460;19.016;2023-07-13T07:28:08;3.35;;;1.52;;
58756;SDS011;44527;47.460;19.016;2023-07-13T07:31:13;2.35;;;1.30;;
58756;SDS011;44527;47.460;19.016;2023-07-13T07:34:18;3.22;;;1.12;;
58756;SDS011;44527;47.460;19.016;2023-07-13T07:37:21;6.10;;;1.52;;
58756;SDS011;44527;47.460;19.016;2023-07-13T07:40:44;3.97;;;1.50;;
58756;SDS011;44527;47.460;19.016;2023-07-13T07:43:50;2.50;;;1.20;;
58756;SDS011;44527;47.460;19.016;2023-07-13T07:46:52;3.90;;;1.55;;
58756;SDS011;44527;47.460;19.016;2023-07-13T07:49:55;3.85;;;1.52;;
58756;SDS011;44527;47.460;19.016;2023-07-13T07:52:57;4.10;;;1.50;;
58756;SDS011;44527;47.460;19.016;2023-07-13T07:56:00;3.67;;;1.33;;
58756;SDS011;44527;47.460;19.016;2023-07-13T08:03:33;3.03;;;1.30;;
58756;SDS011;44527;47.460;19.016;2023-07-13T08:06:39;2.65;;;1.37;;
58756;SDS011;44527;47.460;19.016;2023-07-13T08:09:46;3.78;;;1.40;;
58756;SDS011;44527;47.460;19.016;2023-07-13T08:12:49;2.17;;;1.60;;
58756;SDS011;44527;47.460;19.016;2023-07-13T08:15:54;8.40;;;1.83;;
58756;SDS011;44527;47.460;19.016;2023-07-13T08:18:57;1.73;;;1.30;;
58756;SDS011;44527;47.460;19.016;2023-07-13T08:21:59;5.65;;;1.40;;
58756;SDS011;44527;47.460;19.016;2023-07-13T08:25:02;3.95;;;1.62;;
58756;SDS011;44527;47.460;19.016;2023-07-13T08:28:04;2.50;;;1.27;;
58756;SDS011;44527;47.460;19.016;2023-07-13T08:31:07;2.70;;;1.45;;
58756;SDS011;44527;47.460;19.016;2023-07-13T08:34:10;6.03;;;1.70;;
58756;SDS011;44527;47.460;19.016;2023-07-13T08:37:13;3.83;;;1.60;;
58756;SDS011;44527;47.460;19.016;2023-07-13T08:40:16;2.78;;;1.45;;
58756;SDS011;44527;47.460;19.016;2023-07-13T08:43:27;3.05;;;1.70;;
58756;SDS011;44527;47.460;19.016;2023-07-13T08:46:35;3.22;;;1.48;;
58756;SDS011;44527;47.460;19.016;2023-07-13T08:49:41;2.78;;;1.40;;
58756;SDS011;44527;47.460;19.016;2023-07-13T08:52:46;2.67;;;1.70;;
58756;SDS011;44527;47.460;19.016;2023-07-13T08:55:49;3.55;;;1.60;;
58756;SDS011;44527;47.460;19.016;2023-07-13T08:59:01;4.57;;;1.70;;
58756;SDS011;44527;47.460;19.016;2023-07-13T09:05:38;3.62;;;1.42;;
58756;SDS011;44527;47.460;19.016;2023-07-13T09:08:59;3.50;;;1.30;;
58756;SDS011;44527;47.460;19.016;2023-07-13T09:12:45;2.67;;;1.67;;
58756;SDS011;44527;47.460;19.016;2023-07-13T09:15:50;5.00;;;1.50;;
58756;SDS011;44527;47.460;19.016;2023-07-13T09:18:54;3.25;;;1.60;;
58756;SDS011;44527;47.460;19.016;2023-07-13T09:22:03;3.78;;;1.90;;
58756;SDS011;44527;47.460;19.016;2023-07-13T09:25:32;5.60;;;2.03;;
58756;SDS011;44527;47.460;19.016;2023-07-13T09:28:43;7.05;;;1.80;;
58756;SDS011;44527;47.460;19.016;2023-07-13T09:31:49;3.95;;;1.50;;
58756;SDS011;44527;47.460;19.016;2023-07-13T09:34:56;2.72;;;2.00;;
58756;SDS011;44527;47.460;19.016;2023-07-13T09:38:01;5.53;;;1.58;;
58756;SDS011;44527;47.460;19.016;2023-07-13T09:41:15;5.03;;;1.70;;
58756;SDS011;44527;47.460;19.016;2023-07-13T09:44:28;5.30;;;1.83;;
58756;SDS011;44527;47.460;19.016;2023-07-13T09:47:37;3.15;;;1.77;;
58756;SDS011;44527;47.460;19.016;2023-07-13T09:50:42;2.40;;;1.60;;
58756;SDS011;44527;47.460;19.016;2023-07-13T09:57:57;3.62;;;1.60;;
58756;SDS011;44527;47.460;19.016;2023-07-13T10:01:08;3.92;;;1.60;;
58756;SDS011;44527;47.460;19.016;2023-07-13T10:09:09;5.18;;;2.00;;
58756;SDS011;44527;47.460;19.016;2023-07-13T10:12:16;2.37;;;1.60;;
58756;SDS011;44527;47.460;19.016;2023-07-13T10:15:23;4.68;;;1.75;;
58756;SDS011;44527;47.460;19.016;2023-07-13T10:18:28;5.25;;;1.90;;
58756;SDS011;44527;47.460;19.016;2023-07-13T10:21:49;2.92;;;1.40;;
58756;SDS011;44527;47.460;19.016;2023-07-13T10:24:53;4.72;;;1.70;;
58756;SDS011;44527;47.460;19.016;2023-07-13T10:28:02;3.17;;;1.60;;
58756;SDS011;44527;47.460;19.016;2023-07-13T10:31:14;4.12;;;1.70;;
58756;SDS011;44527;47.460;19.016;2023-07-13T10:34:19;4.22;;;1.50;;
58756;SDS011;44527;47.460;19.016;2023-07-13T10:37:23;6.43;;;1.85;;
58756;SDS011;44527;47.460;19.016;2023-07-13T10:40:30;5.40;;;1.67;;
58756;SDS011;44527;47.460;19.016;2023-07-13T10:43:46;6.12;;;2.00;;
58756;SDS011;44527;47.460;19.016;2023-07-13T10:46:57;2.50;;;1.25;;
58756;SDS011;44527;47.460;19.016;2023-07-13T10:50:03;3.20;;;1.23;;
58756;SDS011;44527;47.460;19.016;2023-07-13T10:56:31;5.97;;;1.65;;
58756;SDS011;44527;47.460;19.016;2023-07-13T10:59:34;5.20;;;1.55;;
58756;SDS011;44527;47.460;19.016;2023-07-13T11:02:37;4.00;;;1.70;;
58756;SDS011;44527;47.460;19.016;2023-07-13T11:05:40;3.45;;;1.50;;
58756;SDS011;44527;47.460;19.016;2023-07-13T11:11:45;6.72;;;1.48;;
58756;SDS011;44527;47.460;19.016;2023-07-13T11:17:57;2.05;;;1.30;;
58756;SDS011;44527;47.460;19.016;2023-07-13T11:21:18;2.00;;;1.30;;
58756;SDS011;44527;47.460;19.016;2023-07-13T11:31:15;2.97;;;1.60;;
58756;SDS011;44527;47.460;19.016;2023-07-13T11:34:25;4.80;;;1.55;;
58756;SDS011;44527;47.460;19.016;2023-07-13T11:37:39;4.12;;;1.40;;
58756;SDS011;44527;47.460;19.016;2023-07-13T11:40:43;4.15;;;1.52;;
58756;SDS011;44527;47.460;19.016;2023-07-13T11:47:21;3.87;;;1.40;;
58756;SDS011;44527;47.460;19.016;2023-07-13T11:50:24;4.90;;;1.50;;
58756;SDS011;44527;47.460;19.016;2023-07-13T11:57:51;3.28;;;1.50;;
58756;SDS011;44527;47.460;19.016;2023-07-13T12:00:59;3.25;;;1.45;;
58756;SDS011;44527;47.460;19.016;2023-07-13T12:04:08;3.78;;;1.30;;
58756;SDS011;44527;47.460;19.016;2023-07-13T12:07:23;1.70;;;1.23;;
58756;SDS011;44527;47.460;19.016;2023-07-13T12:10:27;2.83;;;1.70;;
58756;SDS011;44527;47.460;19.016;2023-07-13T12:13:35;3.92;;;1.73;;
58756;SDS011;44527;47.460;19.016;2023-07-13T12:16:40;2.95;;;1.55;;
58756;SDS011;44527;47.460;19.016;2023-07-13T12:19:43;3.03;;;1.95;;
58756;SDS011;44527;47.460;19.016;2023-07-13T12:22:47;2.90;;;1.58;;
58756;SDS011;44527;47.460;19.016;2023-07-13T12:25:51;2.58;;;1.60;;
58756;SDS011;44527;47.460;19.016;2023-07-13T12:28:55;2.95;;;1.73;;
58756;SDS011;44527;47.460;19.016;2023-07-13T12:36:26;3.08;;;1.60;;
58756;SDS011;44527;47.460;19.016;2023-07-13T12:39:36;3.45;;;2.00;;
58756;SDS011;44527;47.460;19.016;2023-07-13T12:42:40;4.05;;;1.92;;
58756;SDS011;44527;47.460;19.016;2023-07-13T12:49:05;3.25;;;1.55;;
58756;SDS011;44527;47.460;19.016;2023-07-13T12:52:24;4.70;;;1.95;;
58756;SDS011;44527;47.460;19.016;2023-07-13T12:55:42;5.87;;;2.03;;
58756;SDS011;44527;47.460;19.016;2023-07-13T12:58:49;3.87;;;1.70;;
58756;SDS011;44527;47.460;19.016;2023-07-13T13:01:56;4.22;;;2.25;;
58756;SDS011;44527;47.460;19.016;2023-07-13T13:04:59;3.08;;;1.85;;
58756;SDS011;44527;47.460;19.016;2023-07-13T13:08:02;3.55;;;1.90;;
58756;SDS011;44527;47.460;19.016;2023-07-13T13:11:05;4.47;;;1.90;;
58756;SDS011;44527;47.460;19.016;2023-07-13T13:14:07;4.00;;;2.00;;
58756;SDS011;44527;47.460;19.016;2023-07-13T13:17:45;3.05;;;1.70;;
58756;SDS011;44527;47.460;19.016;2023-07-13T13:20:39;2.80;;;1.77;;
58756;SDS011;44527;47.460;19.016;2023-07-13T13:23:43;3.60;;;1.40;;
58756;SDS011;44527;47.460;19.016;2023-07-13T13:26:49;2.90;;;1.92;;
58756;SDS011;44527;47.460;19.016;2023-07-13T13:29:53;4.50;;;2.05;;
58756;SDS011;44527;47.460;19.016;2023-07-13T13:32:56;5.20;;;2.10;;
58756;SDS011;44527;47.460;19.016;2023-07-13T13:35:58;5.20;;;1.83;;
58756;SDS011;44527;47.460;19.016;2023-07-13T13:39:00;3.80;;;1.90;;
58756;SDS011;44527;47.460;19.016;2023-07-13T13:42:04;11.07;;;1.92;;
58756;SDS011;44527;47.460;19.016;2023-07-13T13:45:08;4.00;;;1.62;;
58756;SDS011;44527;47.460;19.016;2023-07-13T13:48:19;2.75;;;1.60;;
58756;SDS011;44527;47.460;19.016;2023-07-13T13:51:24;3.78;;;1.60;;
58756;SDS011;44527;47.460;19.016;2023-07-13T13:54:27;5.12;;;1.87;;
58756;SDS011;44527;47.460;19.016;2023-07-13T13:57:29;4.68;;;2.00;;
58756;SDS011;44527;47.460;19.016;2023-07-13T14:00:33;1.80;;;1.45;;
58756;SDS011;44527;47.460;19.016;2023-07-13T14:03:36;9.95;;;2.00;;
58756;SDS011;44527;47.460;19.016;2023-07-13T14:06:38;3.10;;;1.50;;
58756;SDS011;44527;47.460;19.016;2023-07-13T14:09:43;4.78;;;1.67;;
58756;SDS011;44527;47.460;19.016;2023-07-13T14:12:47;5.28;;;1.75;;
58756;SDS011;44527;47.460;19.016;2023-07-13T14:15:53;2.50;;;1.42;;
58756;SDS011;44527;47.460;19.016;2023-07-13T14:18:56;3.17;;;1.50;;
58756;SDS011;44527;47.460;19.016;2023-07-13T14:22:01;2.45;;;1.70;;
58756;SDS011;44527;47.460;19.016;2023-07-13T14:25:04;6.93;;;1.52;;
58756;SDS011;44527;47.460;19.016;2023-07-13T14:28:15;2.67;;;1.67;;
58756;SDS011;44527;47.460;19.016;2023-07-13T14:31:24;6.22;;;2.17;;
58756;SDS011;44527;47.460;19.016;2023-07-13T14:34:32;2.95;;;2.00;;
58756;SDS011;44527;47.460;19.016;2023-07-13T14:37:34;3.70;;;1.87;;
58756;SDS011;44527;47.460;19.016;2023-07-13T14:40:37;2.83;;;1.60;;
58756;SDS011;44527;47.460;19.016;2023-07-13T14:43:43;4.15;;;1.80;;
58756;SDS011;44527;47.460;19.016;2023-07-13T14:46:46;3.75;;;1.70;;
58756;SDS011;44527;47.460;19.016;2023-07-13T14:49:49;4.03;;;1.87;;
58756;SDS011;44527;47.460;19.016;2023-07-13T14:52:52;4.53;;;1.45;;
58756;SDS011;44527;47.460;19.016;2023-07-13T14:55:54;4.65;;;1.98;;
58756;SDS011;44527;47.460;19.016;2023-07-13T14:58:57;2.62;;;1.60;;
58756;SDS011;44527;47.460;19.016;2023-07-13T15:01:59;3.00;;;1.48;;
58756;SDS011;44527;47.460;19.016;2023-07-13T15:05:05;5.28;;;1.62;;
58756;SDS011;44527;47.460;19.016;2023-07-13T15:08:14;4.03;;;1.70;;
58756;SDS011;44527;47.460;19.016;2023-07-13T15:11:17;7.53;;;2.00;;
58756;SDS011;44527;47.460;19.016;2023-07-13T15:14:20;3.37;;;1.60;;
58756;SDS011;44527;47.460;19.016;2023-07-13T15:20:29;4.47;;;1.90;;
58756;SDS011;44527;47.460;19.016;2023-07-13T15:23:37;4.90;;;1.80;;
58756;SDS011;44527;47.460;19.016;2023-07-13T15:26:40;3.62;;;1.90;;
58756;SDS011;44527;47.460;19.016;2023-07-13T15:29:42;3.20;;;1.62;;
58756;SDS011;44527;47.460;19.016;2023-07-13T15:32:46;4.28;;;1.70;;
58756;SDS011;44527;47.460;19.016;2023-07-13T15:35:50;2.33;;;1.60;;
58756;SDS011;44527;47.460;19.016;2023-07-13T15:38:53;3.22;;;1.92;;
58756;SDS011;44527;47.460;19.016;2023-07-13T15:41:57;2.72;;;1.45;;
58756;SDS011;44527;47.460;19.016;2023-07-13T15:44:59;2.83;;;1.70;;
58756;SDS011;44527;47.460;19.016;2023-07-13T15:48:13;3.25;;;1.70;;
58756;SDS011;44527;47.460;19.016;2023-07-13T15:51:28;2.37;;;1.67;;
58756;SDS011;44527;47.460;19.016;2023-07-13T15:54:32;4.43;;;1.83;;
58756;SDS011;44527;47.460;19.016;2023-07-13T15:57:35;3.58;;;1.73;;
58756;SDS011;44527;47.460;19.016;2023-07-13T16:00:38;3.28;;;1.70;;
58756;SDS011;44527;47.460;19.016;2023-07-13T16:03:45;5.70;;;1.80;;
58756;SDS011;44527;47.460;19.016;2023-07-13T16:06:48;2.20;;;1.70;;
58756;SDS011;44527;47.460;19.016;2023-07-13T16:09:55;3.67;;;1.73;;
58756;SDS011;44527;47.460;19.016;2023-07-13T16:12:58;2.70;;;1.70;;
58756;SDS011;44527;47.460;19.016;2023-07-13T16:16:03;7.05;;;1.98;;
58756;SDS011;44527;47.460;19.016;2023-07-13T16:19:11;3.35;;;2.00;;
58756;SDS011;44527;47.460;19.016;2023-07-13T16:22:15;5.10;;;1.75;;
58756;SDS011;44527;47.460;19.016;2023-07-13T16:25:21;4.40;;;2.00;;
58756;SDS011;44527;47.460;19.016;2023-07-13T16:28:26;2.75;;;1.70;;
58756;SDS011;44527;47.460;19.016;2023-07-13T16:31:30;5.30;;;1.90;;
58756;SDS011;44527;47.460;19.016;2023-07-13T16:34:35;6.00;;;1.95;;
58756;SDS011;44527;47.460;19.016;2023-07-13T16:37:38;4.80;;;1.83;;
58756;SDS011;44527;47.460;19.016;2023-07-13T16:41:02;3.10;;;1.70;;
58756;SDS011;44527;47.460;19.016;2023-07-13T16:44:12;2.62;;;1.40;;
58756;SDS011;44527;47.460;19.016;2023-07-13T16:47:20;3.70;;;2.05;;
58756;SDS011;44527;47.460;19.016;2023-07-13T16:53:32;4.43;;;2.00;;
58756;SDS011;44527;47.460;19.016;2023-07-13T16:56:35;3.83;;;2.08;;
58756;SDS011;44527;47.460;19.016;2023-07-13T16:59:37;5.30;;;2.10;;
58756;SDS011;44527;47.460;19.016;2023-07-13T17:02:40;5.45;;;2.35;;
58756;SDS011;44527;47.460;19.016;2023-07-13T17:05:44;3.20;;;1.70;;
58756;SDS011;44527;47.460;19.016;2023-07-13T17:08:47;3.58;;;2.15;;
58756;SDS011;44527;47.460;19.016;2023-07-13T17:11:50;8.30;;;2.00;;
58756;SDS011;44527;47.460;19.016;2023-07-13T17:14:55;6.62;;;1.87;;
58756;SDS011;44527;47.460;19.016;2023-07-13T17:17:58;3.72;;;2.00;;
58756;SDS011;44527;47.460;19.016;2023-07-13T17:21:13;6.85;;;2.05;;
58756;SDS011;44527;47.460;19.016;2023-07-13T17:24:25;7.55;;;1.85;;
58756;SDS011;44527;47.460;19.016;2023-07-13T17:27:31;4.70;;;1.98;;
58756;SDS011;44527;47.460;19.016;2023-07-13T17:30:35;5.43;;;2.10;;
58756;SDS011;44527;47.460;19.016;2023-07-13T17:33:38;5.00;;;1.87;;
58756;SDS011;44527;47.460;19.016;2023-07-13T17:36:42;5.30;;;1.90;;
58756;SDS011;44527;47.460;19.016;2023-07-13T17:39:45;4.35;;;2.10;;
58756;SDS011;44527;47.460;19.016;2023-07-13T17:42:48;3.67;;;2.17;;
58756;SDS011;44527;47.460;19.016;2023-07-13T17:45:57;4.00;;;1.50;;
58756;SDS011;44527;47.460;19.016;2023-07-13T17:49:01;4.97;;;2.08;;
58756;SDS011;44527;47.460;19.016;2023-07-13T17:52:07;5.07;;;2.00;;
58756;SDS011;44527;47.460;19.016;2023-07-13T17:55:14;7.20;;;2.10;;
58756;SDS011;44527;47.460;19.016;2023-07-13T17:58:18;6.53;;;2.33;;
58756;SDS011;44527;47.460;19.016;2023-07-13T18:01:22;3.53;;;1.92;;
58756;SDS011;44527;47.460;19.016;2023-07-13T18:04:26;5.57;;;2.30;;
58756;SDS011;44527;47.460;19.016;2023-07-13T18:07:29;4.95;;;1.83;;
58756;SDS011;44527;47.460;19.016;2023-07-13T18:10:33;5.93;;;1.98;;
58756;SDS011;44527;47.460;19.016;2023-07-13T18:13:35;4.50;;;1.90;;
58756;SDS011;44527;47.460;19.016;2023-07-13T18:16:49;7.60;;;1.65;;
58756;SDS011;44527;47.460;19.016;2023-07-13T18:19:55;8.25;;;1.90;;
58756;SDS011;44527;47.460;19.016;2023-07-13T18:22:58;2.85;;;1.85;;
58756;SDS011;44527;47.460;19.016;2023-07-13T18:26:01;3.65;;;1.80;;
58756;SDS011;44527;47.460;19.016;2023-07-13T18:29:04;2.28;;;1.60;;
58756;SDS011;44527;47.460;19.016;2023-07-13T18:32:09;8.23;;;1.92;;
58756;SDS011;44527;47.460;19.016;2023-07-13T18:35:27;3.45;;;1.70;;
58756;SDS011;44527;47.460;19.016;2023-07-13T18:38:32;5.12;;;2.03;;
58756;SDS011;44527;47.460;19.016;2023-07-13T18:41:34;2.75;;;1.90;;
58756;SDS011;44527;47.460;19.016;2023-07-13T18:44:40;3.55;;;1.80;;
58756;SDS011;44527;47.460;19.016;2023-07-13T18:47:43;2.90;;;1.77;;
58756;SDS011;44527;47.460;19.016;2023-07-13T18:50:47;3.80;;;1.87;;
58756;SDS011;44527;47.460;19.016;2023-07-13T18:53:51;7.18;;;1.85;;
58756;SDS011;44527;47.460;19.016;2023-07-13T18:56:53;3.80;;;1.73;;
58756;SDS011;44527;47.460;19.016;2023-07-13T18:59:55;3.47;;;2.10;;
58756;SDS011;44527;47.460;19.016;2023-07-13T19:02:58;7.15;;;2.05;;
58756;SDS011;44527;47.460;19.016;2023-07-13T19:06:02;4.43;;;1.70;;
58756;SDS011;44527;47.460;19.016;2023-07-13T19:09:09;3.08;;;2.12;;
58756;SDS011;44527;47.460;19.016;2023-07-13T19:12:17;3.42;;;2.15;;
58756;SDS011;44527;47.460;19.016;2023-07-13T19:15:24;6.28;;;2.50;;
58756;SDS011;44527;47.460;19.016;2023-07-13T19:18:34;3.50;;;2.12;;
58756;SDS011;44527;47.460;19.016;2023-07-13T19:21:36;3.97;;;1.90;;
58756;SDS011;44527;47.460;19.016;2023-07-13T19:24:42;3.03;;;1.67;;
58756;SDS011;44527;47.460;19.016;2023-07-13T19:27:45;4.72;;;2.28;;